sensor_id;sensor_type;location;lat;lon;timestamp;P1;durP1;ratioP1;P2;durP2;ratioP2
74347;SDS011;62778;50.406;10.008;2023-01-08T00:00:09;10.57;;;5.97;;
74347;SDS011;62778;50.406;10.008;2023-01-08T00:01:08;10.77;;;6.73;;
74347;SDS011;62778;50.406;10.008;2023-01-08T00:02:05;10.10;;;6.47;;
74347;SDS011;62778;50.406;10.008;2023-01-08T00:03:00;11.52;;;7.45;;
74347;SDS011;62778;50.406;10.008;2023-01-08T00:03:55;9.57;;;6.13;;
74347;SDS011;62778;50.406;10.008;2023-01-08T00:04:51;9.67;;;5.83;;
74347;SDS011;62778;50.406;10.008;2023-01-08T00:05:46;10.27;;;5.93;;
74347;SDS011;62778;50.406;10.008;2023-01-08T00:06:41;10.03;;;5.80;;
74347;SDS011;62778;50.406;10.008;2023-01-08T00:07:37;11.27;;;6.30;;
74347;SDS011;62778;50.406;10.008;2023-01-08T00:08:32;9.90;;;6.23;;
74347;SDS011;62778;50.406;10.008;2023-01-08T00:09:28;10.00;;;5.72;;
74347;SDS011;62778;50.406;10.008;2023-01-08T00:10:23;10.87;;;6.50;;
74347;SDS011;62778;50.406;10.008;2023-01-08T00:11:19;10.47;;;5.73;;
74347;SDS011;62778;50.406;10.008;2023-01-08T00:12:14;10.07;;;6.17;;
74347;SDS011;62778;50.406;10.008;2023-01-08T00:13:10;10.23;;;6.03;;
74347;SDS011;62778;50.406;10.008;2023-01-08T00:14:05;10.50;;;6.37;;
74347;SDS011;62778;50.406;10.008;2023-01-08T00:15:00;10.03;;;6.20;;
74347;SDS011;62778;50.406;10.008;2023-01-08T00:15:56;10.23;;;6.43;;
74347;SDS011;62778;50.406;10.008;2023-01-08T00:16:51;12.00;;;7.07;;
74347;SDS011;62778;50.406;10.008;2023-01-08T00:17:46;12.50;;;8.20;;
74347;SDS011;62778;50.406;10.008;2023-01-08T00:18:42;11.47;;;7.80;;
74347;SDS011;62778;50.406;10.008;2023-01-08T00:19:38;13.10;;;7.82;;
74347;SDS011;62778;50.406;10.008;2023-01-08T00:20:35;12.27;;;7.82;;
74347;SDS011;62778;50.406;10.008;2023-01-08T00:21:35;10.90;;;7.13;;
74347;SDS011;62778;50.406;10.008;2023-01-08T00:22:30;11.67;;;7.70;;
74347;SDS011;62778;50.406;10.008;2023-01-08T00:23:26;14.37;;;8.73;;
74347;SDS011;62778;50.406;10.008;2023-01-08T00:24:21;12.25;;;7.65;;
74347;SDS011;62778;50.406;10.008;2023-01-08T00:25:17;13.73;;;7.90;;
74347;SDS011;62778;50.406;10.008;2023-01-08T00:26:13;13.63;;;8.43;;
74347;SDS011;62778;50.406;10.008;2023-01-08T00:27:08;13.93;;;9.10;;
74347;SDS011;62778;50.406;10.008;2023-01-08T00:28:03;13.63;;;8.83;;
74347;SDS011;62778;50.406;10.008;2023-01-08T00:28:59;11.20;;;7.33;;
74347;SDS011;62778;50.406;10.008;2023-01-08T00:29:54;11.57;;;7.30;;
74347;SDS011;62778;50.406;10.008;2023-01-08T00:30:49;12.27;;;7.47;;
74347;SDS011;62778;50.406;10.008;2023-01-08T00:31:45;13.30;;;8.70;;
74347;SDS011;62778;50.406;10.008;2023-01-08T00:32:40;10.70;;;6.90;;
74347;SDS011;62778;50.406;10.008;2023-01-08T00:33:35;10.67;;;6.50;;
74347;SDS011;62778;50.406;10.008;2023-01-08T00:34:31;10.47;;;6.60;;
74347;SDS011;62778;50.406;10.008;2023-01-08T00:35:26;11.40;;;7.25;;
74347;SDS011;62778;50.406;10.008;2023-01-08T00:36:22;12.87;;;8.20;;
74347;SDS011;62778;50.406;10.008;2023-01-08T00:37:17;10.87;;;7.00;;
74347;SDS011;62778;50.406;10.008;2023-01-08T00:38:14;12.18;;;7.63;;
74347;SDS011;62778;50.406;10.008;2023-01-08T00:39:09;15.37;;;9.30;;
74347;SDS011;62778;50.406;10.008;2023-01-08T00:40:04;14.67;;;9.80;;
74347;SDS011;62778;50.406;10.008;2023-01-08T00:41:00;13.80;;;8.65;;
74347;SDS011;62778;50.406;10.008;2023-01-08T00:41:56;12.07;;;8.10;;
74347;SDS011;62778;50.406;10.008;2023-01-08T00:42:51;11.83;;;6.97;;
74347;SDS011;62778;50.406;10.008;2023-01-08T00:43:46;13.93;;;8.97;;
74347;SDS011;62778;50.406;10.008;2023-01-08T00:44:41;13.43;;;8.67;;
74347;SDS011;62778;50.406;10.008;2023-01-08T00:45:37;11.43;;;7.50;;
74347;SDS011;62778;50.406;10.008;2023-01-08T00:46:32;10.77;;;6.83;;
74347;SDS011;62778;50.406;10.008;2023-01-08T00:47:27;13.63;;;8.27;;
74347;SDS011;62778;50.406;10.008;2023-01-08T00:48:23;11.80;;;6.90;;
74347;SDS011;62778;50.406;10.008;2023-01-08T00:49:19;11.93;;;6.80;;
74347;SDS011;62778;50.406;10.008;2023-01-08T00:50:14;11.67;;;7.10;;
74347;SDS011;62778;50.406;10.008;2023-01-08T00:51:09;12.17;;;7.43;;
74347;SDS011;62778;50.406;10.008;2023-01-08T00:52:04;10.43;;;6.63;;
74347;SDS011;62778;50.406;10.008;2023-01-08T00:53:00;12.38;;;7.47;;
74347;SDS011;62778;50.406;10.008;2023-01-08T00:53:56;11.73;;;6.93;;
74347;SDS011;62778;50.406;10.008;2023-01-08T00:54:51;10.97;;;6.77;;
74347;SDS011;62778;50.406;10.008;2023-01-08T00:55:46;10.98;;;6.78;;
74347;SDS011;62778;50.406;10.008;2023-01-08T00:56:42;13.47;;;7.73;;
74347;SDS011;62778;50.406;10.008;2023-01-08T00:57:37;11.87;;;7.70;;
74347;SDS011;62778;50.406;10.008;2023-01-08T00:58:33;11.50;;;7.50;;
74347;SDS011;62778;50.406;10.008;2023-01-08T00:59:29;10.17;;;6.33;;
74347;SDS011;62778;50.406;10.008;2023-01-08T01:00:24;11.45;;;6.22;;
74347;SDS011;62778;50.406;10.008;2023-01-08T01:01:19;11.23;;;6.13;;
74347;SDS011;62778;50.406;10.008;2023-01-08T01:02:15;10.33;;;6.37;;
74347;SDS011;62778;50.406;10.008;2023-01-08T01:03:10;9.50;;;5.90;;
74347;SDS011;62778;50.406;10.008;2023-01-08T01:04:05;9.25;;;6.22;;
74347;SDS011;62778;50.406;10.008;2023-01-08T01:05:01;10.47;;;6.10;;
74347;SDS011;62778;50.406;10.008;2023-01-08T01:06:02;9.77;;;6.10;;
74347;SDS011;62778;50.406;10.008;2023-01-08T01:06:58;9.82;;;5.95;;
74347;SDS011;62778;50.406;10.008;2023-01-08T01:07:54;11.23;;;6.47;;
74347;SDS011;62778;50.406;10.008;2023-01-08T01:08:49;10.47;;;6.70;;
74347;SDS011;62778;50.406;10.008;2023-01-08T01:09:44;11.80;;;6.40;;
74347;SDS011;62778;50.406;10.008;2023-01-08T01:10:40;11.17;;;6.80;;
74347;SDS011;62778;50.406;10.008;2023-01-08T01:11:35;10.20;;;6.17;;
74347;SDS011;62778;50.406;10.008;2023-01-08T01:12:30;9.87;;;6.33;;
74347;SDS011;62778;50.406;10.008;2023-01-08T01:13:26;10.30;;;6.13;;
74347;SDS011;62778;50.406;10.008;2023-01-08T01:14:21;9.60;;;6.50;;
74347;SDS011;62778;50.406;10.008;2023-01-08T01:15:17;11.30;;;7.30;;
74347;SDS011;62778;50.406;10.008;2023-01-08T01:16:12;10.93;;;7.05;;
74347;SDS011;62778;50.406;10.008;2023-01-08T01:17:09;12.17;;;6.83;;
74347;SDS011;62778;50.406;10.008;2023-01-08T01:18:05;10.93;;;7.25;;
74347;SDS011;62778;50.406;10.008;2023-01-08T01:19:00;12.43;;;7.33;;
74347;SDS011;62778;50.406;10.008;2023-01-08T01:19:56;12.80;;;8.02;;
74347;SDS011;62778;50.406;10.008;2023-01-08T01:20:51;10.50;;;7.20;;
74347;SDS011;62778;50.406;10.008;2023-01-08T01:21:46;12.40;;;7.60;;
74347;SDS011;62778;50.406;10.008;2023-01-08T01:22:42;12.15;;;7.35;;
74347;SDS011;62778;50.406;10.008;2023-01-08T01:23:37;12.07;;;7.60;;
74347;SDS011;62778;50.406;10.008;2023-01-08T01:24:32;11.40;;;7.23;;
74347;SDS011;62778;50.406;10.008;2023-01-08T01:25:28;11.77;;;7.20;;
74347;SDS011;62778;50.406;10.008;2023-01-08T01:26:23;12.60;;;7.65;;
74347;SDS011;62778;50.406;10.008;2023-01-08T01:27:19;12.80;;;7.60;;
74347;SDS011;62778;50.406;10.008;2023-01-08T01:28:14;13.82;;;8.82;;
74347;SDS011;62778;50.406;10.008;2023-01-08T01:29:10;12.43;;;7.93;;
74347;SDS011;62778;50.406;10.008;2023-01-08T01:30:05;11.17;;;7.03;;
74347;SDS011;62778;50.406;10.008;2023-01-08T01:31:01;12.40;;;6.60;;
74347;SDS011;62778;50.406;10.008;2023-01-08T01:31:57;14.95;;;10.25;;
74347;SDS011;62778;50.406;10.008;2023-01-08T01:32:52;12.40;;;8.13;;
74347;SDS011;62778;50.406;10.008;2023-01-08T01:33:49;11.60;;;7.20;;
74347;SDS011;62778;50.406;10.008;2023-01-08T01:34:44;12.20;;;7.85;;
74347;SDS011;62778;50.406;10.008;2023-01-08T01:35:40;12.93;;;9.03;;
74347;SDS011;62778;50.406;10.008;2023-01-08T01:36:35;14.30;;;8.07;;
74347;SDS011;62778;50.406;10.008;2023-01-08T01:37:31;11.50;;;7.00;;
74347;SDS011;62778;50.406;10.008;2023-01-08T01:38:27;11.75;;;7.38;;
74347;SDS011;62778;50.406;10.008;2023-01-08T01:39:22;13.90;;;8.70;;
74347;SDS011;62778;50.406;10.008;2023-01-08T01:40:17;15.87;;;9.30;;
74347;SDS011;62778;50.406;10.008;2023-01-08T01:42:18;13.50;;;7.50;;
74347;SDS011;62778;50.406;10.008;2023-01-08T01:43:33;14.27;;;8.70;;
74347;SDS011;62778;50.406;10.008;2023-01-08T01:45:33;15.02;;;9.57;;
74347;SDS011;62778;50.406;10.008;2023-01-08T01:46:33;11.47;;;7.23;;
74347;SDS011;62778;50.406;10.008;2023-01-08T01:47:33;12.98;;;7.22;;
74347;SDS011;62778;50.406;10.008;2023-01-08T01:48:31;13.18;;;7.63;;
74347;SDS011;62778;50.406;10.008;2023-01-08T01:49:26;12.77;;;6.93;;
74347;SDS011;62778;50.406;10.008;2023-01-08T01:50:24;13.82;;;8.52;;
74347;SDS011;62778;50.406;10.008;2023-01-08T01:51:22;15.93;;;9.30;;
74347;SDS011;62778;50.406;10.008;2023-01-08T01:52:20;13.65;;;9.27;;
74347;SDS011;62778;50.406;10.008;2023-01-08T01:54:11;10.43;;;7.00;;
74347;SDS011;62778;50.406;10.008;2023-01-08T01:55:07;11.07;;;6.93;;
74347;SDS011;62778;50.406;10.008;2023-01-08T01:56:04;10.70;;;7.47;;
74347;SDS011;62778;50.406;10.008;2023-01-08T01:57:00;12.40;;;8.50;;
74347;SDS011;62778;50.406;10.008;2023-01-08T01:58:12;14.30;;;8.43;;
74347;SDS011;62778;50.406;10.008;2023-01-08T01:59:09;12.15;;;7.35;;
74347;SDS011;62778;50.406;10.008;2023-01-08T02:00:06;12.05;;;7.13;;
74347;SDS011;62778;50.406;10.008;2023-01-08T02:01:04;10.65;;;6.80;;
74347;SDS011;62778;50.406;10.008;2023-01-08T02:02:02;11.60;;;7.13;;
74347;SDS011;62778;50.406;10.008;2023-01-08T02:02:58;10.82;;;7.10;;
74347;SDS011;62778;50.406;10.008;2023-01-08T02:03:53;11.52;;;7.10;;
74347;SDS011;62778;50.406;10.008;2023-01-08T02:04:49;11.63;;;7.27;;
74347;SDS011;62778;50.406;10.008;2023-01-08T02:08:01;10.45;;;6.38;;
74347;SDS011;62778;50.406;10.008;2023-01-08T02:09:03;10.43;;;6.15;;
74347;SDS011;62778;50.406;10.008;2023-01-08T02:11:20;10.50;;;6.47;;
74347;SDS011;62778;50.406;10.008;2023-01-08T02:12:33;10.60;;;6.38;;
74347;SDS011;62778;50.406;10.008;2023-01-08T02:13:32;11.03;;;7.00;;
74347;SDS011;62778;50.406;10.008;2023-01-08T02:14:34;10.90;;;6.80;;
74347;SDS011;62778;50.406;10.008;2023-01-08T02:16:58;11.27;;;6.65;;
74347;SDS011;62778;50.406;10.008;2023-01-08T02:18:59;10.38;;;6.75;;
74347;SDS011;62778;50.406;10.008;2023-01-08T02:20:01;11.40;;;6.85;;
74347;SDS011;62778;50.406;10.008;2023-01-08T02:21:09;10.70;;;7.03;;
74347;SDS011;62778;50.406;10.008;2023-01-08T02:23:19;12.07;;;7.57;;
74347;SDS011;62778;50.406;10.008;2023-01-08T02:24:38;11.37;;;7.10;;
74347;SDS011;62778;50.406;10.008;2023-01-08T02:26:37;11.35;;;6.82;;
74347;SDS011;62778;50.406;10.008;2023-01-08T02:27:32;11.27;;;6.75;;
74347;SDS011;62778;50.406;10.008;2023-01-08T02:28:29;13.33;;;7.60;;
74347;SDS011;62778;50.406;10.008;2023-01-08T02:29:25;14.07;;;8.35;;
74347;SDS011;62778;50.406;10.008;2023-01-08T02:30:22;11.02;;;6.95;;
74347;SDS011;62778;50.406;10.008;2023-01-08T02:31:19;11.95;;;6.93;;
74347;SDS011;62778;50.406;10.008;2023-01-08T02:32:15;14.13;;;8.70;;
74347;SDS011;62778;50.406;10.008;2023-01-08T02:33:11;14.37;;;8.83;;
74347;SDS011;62778;50.406;10.008;2023-01-08T02:34:06;13.75;;;8.63;;
74347;SDS011;62778;50.406;10.008;2023-01-08T02:35:02;13.77;;;8.37;;
74347;SDS011;62778;50.406;10.008;2023-01-08T02:37:28;11.98;;;6.70;;
74347;SDS011;62778;50.406;10.008;2023-01-08T02:38:24;14.13;;;8.47;;
74347;SDS011;62778;50.406;10.008;2023-01-08T02:40:27;13.88;;;8.80;;
74347;SDS011;62778;50.406;10.008;2023-01-08T02:41:26;11.50;;;7.53;;
74347;SDS011;62778;50.406;10.008;2023-01-08T02:42:32;10.73;;;6.82;;
74347;SDS011;62778;50.406;10.008;2023-01-08T02:43:38;11.73;;;7.30;;
74347;SDS011;62778;50.406;10.008;2023-01-08T02:44:56;12.32;;;8.00;;
74347;SDS011;62778;50.406;10.008;2023-01-08T02:45:54;12.00;;;7.05;;
74347;SDS011;62778;50.406;10.008;2023-01-08T02:46:51;11.75;;;6.80;;
74347;SDS011;62778;50.406;10.008;2023-01-08T02:47:53;11.57;;;7.45;;
74347;SDS011;62778;50.406;10.008;2023-01-08T02:48:51;13.05;;;8.40;;
74347;SDS011;62778;50.406;10.008;2023-01-08T02:49:50;13.77;;;7.82;;
74347;SDS011;62778;50.406;10.008;2023-01-08T02:51:50;11.20;;;6.80;;
74347;SDS011;62778;50.406;10.008;2023-01-08T02:52:22;10.57;;;6.45;;
74347;SDS011;62778;50.406;10.008;2023-01-08T02:53:21;9.52;;;6.38;;
74347;SDS011;62778;50.406;10.008;2023-01-08T02:54:21;13.00;;;7.07;;
74347;SDS011;62778;50.406;10.008;2023-01-08T02:55:19;10.45;;;6.15;;
74347;SDS011;62778;50.406;10.008;2023-01-08T02:56:20;12.13;;;7.40;;
74347;SDS011;62778;50.406;10.008;2023-01-08T02:57:18;10.63;;;6.47;;
74347;SDS011;62778;50.406;10.008;2023-01-08T02:58:14;13.48;;;6.88;;
74347;SDS011;62778;50.406;10.008;2023-01-08T02:59:11;12.25;;;6.90;;
74347;SDS011;62778;50.406;10.008;2023-01-08T03:00:07;10.98;;;6.22;;
74347;SDS011;62778;50.406;10.008;2023-01-08T03:01:05;11.60;;;6.82;;
74347;SDS011;62778;50.406;10.008;2023-01-08T03:02:02;10.03;;;6.47;;
74347;SDS011;62778;50.406;10.008;2023-01-08T03:03:03;10.85;;;7.18;;
74347;SDS011;62778;50.406;10.008;2023-01-08T03:04:02;10.32;;;6.60;;
74347;SDS011;62778;50.406;10.008;2023-01-08T03:05:04;10.40;;;6.47;;
74347;SDS011;62778;50.406;10.008;2023-01-08T03:06:04;11.82;;;7.18;;
74347;SDS011;62778;50.406;10.008;2023-01-08T03:07:01;10.60;;;6.57;;
74347;SDS011;62778;50.406;10.008;2023-01-08T03:07:57;11.40;;;7.27;;
74347;SDS011;62778;50.406;10.008;2023-01-08T03:08:52;12.43;;;7.75;;
74347;SDS011;62778;50.406;10.008;2023-01-08T03:09:48;13.07;;;8.03;;
74347;SDS011;62778;50.406;10.008;2023-01-08T03:10:44;10.32;;;6.45;;
74347;SDS011;62778;50.406;10.008;2023-01-08T03:11:45;11.80;;;7.45;;
74347;SDS011;62778;50.406;10.008;2023-01-08T03:12:49;10.97;;;6.90;;
74347;SDS011;62778;50.406;10.008;2023-01-08T03:13:55;12.88;;;8.32;;
74347;SDS011;62778;50.406;10.008;2023-01-08T03:15:00;11.25;;;6.78;;
74347;SDS011;62778;50.406;10.008;2023-01-08T03:16:00;11.55;;;7.10;;
74347;SDS011;62778;50.406;10.008;2023-01-08T03:18:25;11.10;;;7.13;;
74347;SDS011;62778;50.406;10.008;2023-01-08T03:19:26;11.38;;;6.80;;
74347;SDS011;62778;50.406;10.008;2023-01-08T03:20:24;10.77;;;6.95;;
74347;SDS011;62778;50.406;10.008;2023-01-08T03:21:20;11.80;;;7.43;;
74347;SDS011;62778;50.406;10.008;2023-01-08T03:22:16;11.35;;;6.72;;
74347;SDS011;62778;50.406;10.008;2023-01-08T03:23:12;11.15;;;6.88;;
74347;SDS011;62778;50.406;10.008;2023-01-08T03:24:08;11.20;;;6.32;;
74347;SDS011;62778;50.406;10.008;2023-01-08T03:25:06;11.00;;;6.57;;
74347;SDS011;62778;50.406;10.008;2023-01-08T03:26:02;10.68;;;6.53;;
74347;SDS011;62778;50.406;10.008;2023-01-08T03:26:59;10.88;;;6.75;;
74347;SDS011;62778;50.406;10.008;2023-01-08T03:27:58;11.55;;;7.45;;
74347;SDS011;62778;50.406;10.008;2023-01-08T03:28:57;11.52;;;6.72;;
74347;SDS011;62778;50.406;10.008;2023-01-08T03:29:53;12.02;;;7.70;;
74347;SDS011;62778;50.406;10.008;2023-01-08T03:30:50;12.13;;;7.47;;
74347;SDS011;62778;50.406;10.008;2023-01-08T03:31:46;14.47;;;8.83;;
74347;SDS011;62778;50.406;10.008;2023-01-08T03:32:42;12.93;;;8.77;;
74347;SDS011;62778;50.406;10.008;2023-01-08T03:33:38;11.45;;;7.82;;
74347;SDS011;62778;50.406;10.008;2023-01-08T03:34:34;11.98;;;6.82;;
74347;SDS011;62778;50.406;10.008;2023-01-08T03:35:31;13.95;;;8.50;;
74347;SDS011;62778;50.406;10.008;2023-01-08T03:36:27;12.15;;;8.20;;
74347;SDS011;62778;50.406;10.008;2023-01-08T03:37:26;12.88;;;8.13;;
74347;SDS011;62778;50.406;10.008;2023-01-08T03:38:27;10.98;;;7.28;;
74347;SDS011;62778;50.406;10.008;2023-01-08T03:39:25;12.88;;;7.35;;
74347;SDS011;62778;50.406;10.008;2023-01-08T03:40:30;12.98;;;8.27;;
74347;SDS011;62778;50.406;10.008;2023-01-08T03:41:30;13.63;;;9.00;;
74347;SDS011;62778;50.406;10.008;2023-01-08T03:42:26;14.68;;;9.15;;
74347;SDS011;62778;50.406;10.008;2023-01-08T03:43:22;15.15;;;9.65;;
74347;SDS011;62778;50.406;10.008;2023-01-08T03:44:18;14.63;;;9.57;;
74347;SDS011;62778;50.406;10.008;2023-01-08T03:45:13;14.47;;;9.27;;
74347;SDS011;62778;50.406;10.008;2023-01-08T03:46:10;14.80;;;9.13;;
74347;SDS011;62778;50.406;10.008;2023-01-08T03:47:08;13.90;;;9.07;;
74347;SDS011;62778;50.406;10.008;2023-01-08T03:48:04;13.85;;;9.07;;
74347;SDS011;62778;50.406;10.008;2023-01-08T03:49:00;15.13;;;8.90;;
74347;SDS011;62778;50.406;10.008;2023-01-08T03:49:56;14.35;;;7.93;;
74347;SDS011;62778;50.406;10.008;2023-01-08T03:50:55;13.98;;;8.95;;
74347;SDS011;62778;50.406;10.008;2023-01-08T03:51:50;13.17;;;8.80;;
74347;SDS011;62778;50.406;10.008;2023-01-08T03:52:45;13.07;;;8.50;;
74347;SDS011;62778;50.406;10.008;2023-01-08T03:53:41;13.10;;;8.43;;
74347;SDS011;62778;50.406;10.008;2023-01-08T03:54:36;13.32;;;8.82;;
74347;SDS011;62778;50.406;10.008;2023-01-08T03:55:31;13.57;;;8.40;;
74347;SDS011;62778;50.406;10.008;2023-01-08T03:56:27;11.73;;;7.60;;
74347;SDS011;62778;50.406;10.008;2023-01-08T03:57:22;12.90;;;8.10;;
74347;SDS011;62778;50.406;10.008;2023-01-08T03:58:17;12.63;;;8.23;;
74347;SDS011;62778;50.406;10.008;2023-01-08T03:59:13;14.27;;;9.03;;
74347;SDS011;62778;50.406;10.008;2023-01-08T04:00:09;13.02;;;8.05;;
74347;SDS011;62778;50.406;10.008;2023-01-08T04:01:05;14.00;;;8.10;;
74347;SDS011;62778;50.406;10.008;2023-01-08T04:02:00;13.02;;;7.63;;
74347;SDS011;62778;50.406;10.008;2023-01-08T04:02:55;12.17;;;7.67;;
74347;SDS011;62778;50.406;10.008;2023-01-08T04:03:51;11.40;;;7.60;;
74347;SDS011;62778;50.406;10.008;2023-01-08T04:04:46;10.93;;;7.17;;
74347;SDS011;62778;50.406;10.008;2023-01-08T04:05:41;11.05;;;6.20;;
74347;SDS011;62778;50.406;10.008;2023-01-08T04:06:37;11.20;;;6.87;;
74347;SDS011;62778;50.406;10.008;2023-01-08T04:07:32;11.13;;;6.87;;
74347;SDS011;62778;50.406;10.008;2023-01-08T04:08:27;11.47;;;6.80;;
74347;SDS011;62778;50.406;10.008;2023-01-08T04:09:23;11.13;;;6.87;;
74347;SDS011;62778;50.406;10.008;2023-01-08T04:10:18;9.57;;;6.30;;
74347;SDS011;62778;50.406;10.008;2023-01-08T04:11:13;10.10;;;5.93;;
74347;SDS011;62778;50.406;10.008;2023-01-08T04:12:09;9.50;;;5.77;;
74347;SDS011;62778;50.406;10.008;2023-01-08T04:13:04;12.10;;;6.90;;
74347;SDS011;62778;50.406;10.008;2023-01-08T04:13:59;10.57;;;6.73;;
74347;SDS011;62778;50.406;10.008;2023-01-08T04:14:55;10.33;;;6.83;;
74347;SDS011;62778;50.406;10.008;2023-01-08T04:15:50;11.90;;;7.53;;
74347;SDS011;62778;50.406;10.008;2023-01-08T04:16:45;13.15;;;8.15;;
74347;SDS011;62778;50.406;10.008;2023-01-08T04:17:41;11.77;;;6.90;;
74347;SDS011;62778;50.406;10.008;2023-01-08T04:18:36;10.43;;;6.40;;
74347;SDS011;62778;50.406;10.008;2023-01-08T04:19:31;10.90;;;6.37;;
74347;SDS011;62778;50.406;10.008;2023-01-08T04:20:26;10.03;;;5.97;;
74347;SDS011;62778;50.406;10.008;2023-01-08T04:21:22;11.23;;;6.93;;
74347;SDS011;62778;50.406;10.008;2023-01-08T04:22:17;13.33;;;8.03;;
74347;SDS011;62778;50.406;10.008;2023-01-08T04:23:13;12.23;;;7.47;;
74347;SDS011;62778;50.406;10.008;2023-01-08T04:24:09;10.75;;;6.43;;
74347;SDS011;62778;50.406;10.008;2023-01-08T04:25:05;11.23;;;6.43;;
74347;SDS011;62778;50.406;10.008;2023-01-08T04:26:06;11.17;;;6.77;;
74347;SDS011;62778;50.406;10.008;2023-01-08T04:27:02;12.23;;;7.40;;
74347;SDS011;62778;50.406;10.008;2023-01-08T04:27:57;11.30;;;7.43;;
74347;SDS011;62778;50.406;10.008;2023-01-08T04:28:53;13.50;;;7.65;;
74347;SDS011;62778;50.406;10.008;2023-01-08T04:29:48;11.33;;;6.80;;
74347;SDS011;62778;50.406;10.008;2023-01-08T04:30:44;12.40;;;7.23;;
74347;SDS011;62778;50.406;10.008;2023-01-08T04:31:39;10.50;;;6.37;;
74347;SDS011;62778;50.406;10.008;2023-01-08T04:32:34;11.05;;;7.25;;
74347;SDS011;62778;50.406;10.008;2023-01-08T04:33:30;11.70;;;7.60;;
74347;SDS011;62778;50.406;10.008;2023-01-08T04:34:25;13.40;;;8.60;;
74347;SDS011;62778;50.406;10.008;2023-01-08T04:35:20;12.50;;;8.43;;
74347;SDS011;62778;50.406;10.008;2023-01-08T04:36:16;14.25;;;8.95;;
74347;SDS011;62778;50.406;10.008;2023-01-08T04:37:11;12.77;;;8.30;;
74347;SDS011;62778;50.406;10.008;2023-01-08T04:38:06;12.43;;;8.37;;
74347;SDS011;62778;50.406;10.008;2023-01-08T04:39:02;11.47;;;7.23;;
74347;SDS011;62778;50.406;10.008;2023-01-08T04:39:58;14.07;;;8.73;;
74347;SDS011;62778;50.406;10.008;2023-01-08T04:40:56;12.83;;;7.97;;
74347;SDS011;62778;50.406;10.008;2023-01-08T04:41:52;12.75;;;7.88;;
74347;SDS011;62778;50.406;10.008;2023-01-08T04:42:47;12.00;;;7.30;;
74347;SDS011;62778;50.406;10.008;2023-01-08T04:43:43;11.50;;;7.25;;
74347;SDS011;62778;50.406;10.008;2023-01-08T04:44:38;11.50;;;7.00;;
74347;SDS011;62778;50.406;10.008;2023-01-08T04:45:33;11.73;;;7.13;;
74347;SDS011;62778;50.406;10.008;2023-01-08T04:46:31;11.03;;;6.70;;
74347;SDS011;62778;50.406;10.008;2023-01-08T04:47:26;10.45;;;6.75;;
74347;SDS011;62778;50.406;10.008;2023-01-08T04:48:21;11.33;;;7.00;;
74347;SDS011;62778;50.406;10.008;2023-01-08T04:49:16;14.70;;;7.77;;
74347;SDS011;62778;50.406;10.008;2023-01-08T04:50:13;12.43;;;7.60;;
74347;SDS011;62778;50.406;10.008;2023-01-08T04:51:08;10.63;;;6.60;;
74347;SDS011;62778;50.406;10.008;2023-01-08T04:52:03;10.33;;;6.83;;
74347;SDS011;62778;50.406;10.008;2023-01-08T04:52:59;11.27;;;6.80;;
74347;SDS011;62778;50.406;10.008;2023-01-08T04:53:54;11.33;;;7.40;;
74347;SDS011;62778;50.406;10.008;2023-01-08T04:54:49;14.40;;;9.57;;
74347;SDS011;62778;50.406;10.008;2023-01-08T04:55:45;12.15;;;8.25;;
74347;SDS011;62778;50.406;10.008;2023-01-08T04:56:40;10.97;;;6.87;;
74347;SDS011;62778;50.406;10.008;2023-01-08T04:57:35;11.33;;;6.93;;
74347;SDS011;62778;50.406;10.008;2023-01-08T04:58:31;11.07;;;6.97;;
74347;SDS011;62778;50.406;10.008;2023-01-08T04:59:27;11.90;;;7.22;;
74347;SDS011;62778;50.406;10.008;2023-01-08T05:00:22;12.27;;;8.27;;
74347;SDS011;62778;50.406;10.008;2023-01-08T05:01:22;12.73;;;8.35;;
74347;SDS011;62778;50.406;10.008;2023-01-08T05:02:18;14.45;;;9.38;;
74347;SDS011;62778;50.406;10.008;2023-01-08T05:03:13;14.37;;;9.33;;
74347;SDS011;62778;50.406;10.008;2023-01-08T05:04:08;13.37;;;8.93;;
74347;SDS011;62778;50.406;10.008;2023-01-08T05:05:05;13.18;;;8.25;;
74347;SDS011;62778;50.406;10.008;2023-01-08T05:06:00;11.20;;;7.43;;
74347;SDS011;62778;50.406;10.008;2023-01-08T05:06:56;13.20;;;8.77;;
74347;SDS011;62778;50.406;10.008;2023-01-08T05:07:51;12.63;;;8.67;;
74347;SDS011;62778;50.406;10.008;2023-01-08T05:08:46;13.80;;;9.33;;
74347;SDS011;62778;50.406;10.008;2023-01-08T05:09:42;12.93;;;8.80;;
74347;SDS011;62778;50.406;10.008;2023-01-08T05:10:37;13.70;;;9.13;;
74347;SDS011;62778;50.406;10.008;2023-01-08T05:11:32;11.60;;;7.30;;
74347;SDS011;62778;50.406;10.008;2023-01-08T05:12:29;11.13;;;7.32;;
74347;SDS011;62778;50.406;10.008;2023-01-08T05:13:24;12.00;;;7.70;;
74347;SDS011;62778;50.406;10.008;2023-01-08T05:14:20;11.13;;;7.33;;
74347;SDS011;62778;50.406;10.008;2023-01-08T05:15:15;10.67;;;6.57;;
74347;SDS011;62778;50.406;10.008;2023-01-08T05:16:10;11.10;;;6.53;;
74347;SDS011;62778;50.406;10.008;2023-01-08T05:17:06;9.43;;;5.90;;
74347;SDS011;62778;50.406;10.008;2023-01-08T05:18:02;12.03;;;8.00;;
74347;SDS011;62778;50.406;10.008;2023-01-08T05:18:59;11.70;;;7.10;;
74347;SDS011;62778;50.406;10.008;2023-01-08T05:19:54;10.40;;;6.50;;
74347;SDS011;62778;50.406;10.008;2023-01-08T05:20:50;11.37;;;7.00;;
74347;SDS011;62778;50.406;10.008;2023-01-08T05:21:45;10.47;;;6.60;;
74347;SDS011;62778;50.406;10.008;2023-01-08T05:22:40;11.98;;;7.50;;
74347;SDS011;62778;50.406;10.008;2023-01-08T05:23:36;11.43;;;7.27;;
74347;SDS011;62778;50.406;10.008;2023-01-08T05:24:31;12.17;;;6.77;;
74347;SDS011;62778;50.406;10.008;2023-01-08T05:25:26;13.07;;;8.30;;
74347;SDS011;62778;50.406;10.008;2023-01-08T05:26:22;11.13;;;7.40;;
74347;SDS011;62778;50.406;10.008;2023-01-08T05:27:17;11.13;;;6.10;;
74347;SDS011;62778;50.406;10.008;2023-01-08T05:28:12;12.17;;;7.97;;
74347;SDS011;62778;50.406;10.008;2023-01-08T05:29:08;11.33;;;7.00;;
74347;SDS011;62778;50.406;10.008;2023-01-08T05:30:04;12.48;;;8.30;;
74347;SDS011;62778;50.406;10.008;2023-01-08T05:31:00;18.52;;;11.40;;
74347;SDS011;62778;50.406;10.008;2023-01-08T05:31:55;15.17;;;9.30;;
74347;SDS011;62778;50.406;10.008;2023-01-08T05:32:50;12.90;;;8.60;;
74347;SDS011;62778;50.406;10.008;2023-01-08T05:33:46;12.53;;;7.70;;
74347;SDS011;62778;50.406;10.008;2023-01-08T05:34:42;12.07;;;7.73;;
74347;SDS011;62778;50.406;10.008;2023-01-08T05:35:38;12.35;;;8.27;;
74347;SDS011;62778;50.406;10.008;2023-01-08T05:36:33;12.02;;;7.93;;
74347;SDS011;62778;50.406;10.008;2023-01-08T05:37:29;13.77;;;8.67;;
74347;SDS011;62778;50.406;10.008;2023-01-08T05:38:24;13.23;;;8.50;;
74347;SDS011;62778;50.406;10.008;2023-01-08T05:39:19;14.27;;;8.80;;
74347;SDS011;62778;50.406;10.008;2023-01-08T05:40:14;14.23;;;8.80;;
74347;SDS011;62778;50.406;10.008;2023-01-08T05:41:10;12.60;;;8.70;;
74347;SDS011;62778;50.406;10.008;2023-01-08T05:42:05;11.73;;;8.13;;
74347;SDS011;62778;50.406;10.008;2023-01-08T05:43:00;12.83;;;7.13;;
74347;SDS011;62778;50.406;10.008;2023-01-08T05:43:56;12.23;;;7.60;;
74347;SDS011;62778;50.406;10.008;2023-01-08T05:44:51;11.93;;;7.80;;
74347;SDS011;62778;50.406;10.008;2023-01-08T05:45:46;13.27;;;8.13;;
74347;SDS011;62778;50.406;10.008;2023-01-08T05:46:42;10.15;;;6.78;;